Terminal Aerodrome Forecast
Issued by NWS

Current Version | Previous Version | Graphics & Text | Print | Product List | Glossary On
Versions: 1 2 3 4 5 6 7 8 9 10 11 12 13 14 15 16
848
FTUS41 KILN 221128
TAFLUK
TAF
KLUK 221128Z 2212/2312 00000KT 1/4SM FG VV001
     FM221300 32003KT P6SM SKC
     FM221500 32010KT P6SM SCT100
     FM230000 01004KT P6SM SKC
     FM230700 00000KT 1/2SM FG BKN002=

USA.gov is the U.S. government's official web portal to all federal, state and local government web resources and services.